sensor_id;sensor_type;location;lat;lon;timestamp;P1;durP1;ratioP1;P2;durP2;ratioP2
75499;SDS011;64076;51.466;7.260;2024-01-15T00:01:52;23.60;;;19.47;;
75499;SDS011;64076;51.466;7.260;2024-01-15T00:04:18;23.80;;;19.63;;
75499;SDS011;64076;51.466;7.260;2024-01-15T00:06:43;26.13;;;20.13;;
75499;SDS011;64076;51.466;7.260;2024-01-15T00:09:09;25.37;;;20.23;;
75499;SDS011;64076;51.466;7.260;2024-01-15T00:11:35;24.37;;;18.50;;
75499;SDS011;64076;51.466;7.260;2024-01-15T00:14:00;25.88;;;20.35;;
75499;SDS011;64076;51.466;7.260;2024-01-15T00:16:26;26.07;;;19.87;;
75499;SDS011;64076;51.466;7.260;2024-01-15T00:18:51;25.83;;;20.43;;
75499;SDS011;64076;51.466;7.260;2024-01-15T00:21:17;23.52;;;19.33;;
75499;SDS011;64076;51.466;7.260;2024-01-15T00:23:42;25.00;;;20.23;;
75499;SDS011;64076;51.466;7.260;2024-01-15T00:26:11;25.33;;;19.88;;
75499;SDS011;64076;51.466;7.260;2024-01-15T00:28:37;23.87;;;19.60;;
75499;SDS011;64076;51.466;7.260;2024-01-15T00:31:04;24.00;;;19.88;;
75499;SDS011;64076;51.466;7.260;2024-01-15T00:33:29;25.27;;;19.38;;
75499;SDS011;64076;51.466;7.260;2024-01-15T00:35:55;23.50;;;19.57;;
75499;SDS011;64076;51.466;7.260;2024-01-15T00:38:20;24.05;;;19.55;;
75499;SDS011;64076;51.466;7.260;2024-01-15T00:40:46;25.70;;;19.83;;
75499;SDS011;64076;51.466;7.260;2024-01-15T00:43:11;24.97;;;19.83;;
75499;SDS011;64076;51.466;7.260;2024-01-15T00:45:37;24.77;;;20.35;;
75499;SDS011;64076;51.466;7.260;2024-01-15T00:48:03;25.47;;;20.57;;
75499;SDS011;64076;51.466;7.260;2024-01-15T00:50:29;23.58;;;19.67;;
75499;SDS011;64076;51.466;7.260;2024-01-15T00:52:54;25.37;;;21.00;;
75499;SDS011;64076;51.466;7.260;2024-01-15T00:55:20;24.53;;;19.90;;
75499;SDS011;64076;51.466;7.260;2024-01-15T00:57:45;25.00;;;20.00;;
75499;SDS011;64076;51.466;7.260;2024-01-15T01:00:11;24.00;;;19.13;;
75499;SDS011;64076;51.466;7.260;2024-01-15T01:02:37;24.33;;;19.60;;
75499;SDS011;64076;51.466;7.260;2024-01-15T01:05:03;25.23;;;20.53;;
75499;SDS011;64076;51.466;7.260;2024-01-15T01:07:29;24.20;;;19.83;;
75499;SDS011;64076;51.466;7.260;2024-01-15T01:09:55;25.80;;;20.67;;
75499;SDS011;64076;51.466;7.260;2024-01-15T01:12:20;26.75;;;20.42;;
75499;SDS011;64076;51.466;7.260;2024-01-15T01:14:46;26.17;;;20.60;;
75499;SDS011;64076;51.466;7.260;2024-01-15T01:17:11;25.30;;;20.20;;
75499;SDS011;64076;51.466;7.260;2024-01-15T01:19:37;23.10;;;19.10;;
75499;SDS011;64076;51.466;7.260;2024-01-15T01:22:03;25.25;;;19.63;;
75499;SDS011;64076;51.466;7.260;2024-01-15T01:24:28;23.30;;;19.30;;
75499;SDS011;64076;51.466;7.260;2024-01-15T01:26:54;25.27;;;20.07;;
75499;SDS011;64076;51.466;7.260;2024-01-15T01:29:19;25.08;;;20.38;;
75499;SDS011;64076;51.466;7.260;2024-01-15T01:31:45;26.10;;;20.97;;
75499;SDS011;64076;51.466;7.260;2024-01-15T01:34:13;23.60;;;19.13;;
75499;SDS011;64076;51.466;7.260;2024-01-15T01:36:40;25.38;;;20.40;;
75499;SDS011;64076;51.466;7.260;2024-01-15T01:39:05;24.23;;;19.43;;
75499;SDS011;64076;51.466;7.260;2024-01-15T01:41:31;24.53;;;19.93;;
75499;SDS011;64076;51.466;7.260;2024-01-15T01:43:56;24.10;;;19.33;;
75499;SDS011;64076;51.466;7.260;2024-01-15T01:46:22;27.15;;;20.55;;
75499;SDS011;64076;51.466;7.260;2024-01-15T01:48:49;24.23;;;19.77;;
75499;SDS011;64076;51.466;7.260;2024-01-15T01:51:15;23.57;;;19.17;;
75499;SDS011;64076;51.466;7.260;2024-01-15T01:53:43;23.98;;;19.85;;
75499;SDS011;64076;51.466;7.260;2024-01-15T01:56:10;25.55;;;19.77;;
75499;SDS011;64076;51.466;7.260;2024-01-15T01:58:37;24.57;;;19.83;;
75499;SDS011;64076;51.466;7.260;2024-01-15T02:01:03;23.75;;;20.08;;
75499;SDS011;64076;51.466;7.260;2024-01-15T02:03:29;26.17;;;19.00;;
75499;SDS011;64076;51.466;7.260;2024-01-15T02:05:56;23.70;;;19.08;;
75499;SDS011;64076;51.466;7.260;2024-01-15T02:08:21;24.65;;;20.23;;
75499;SDS011;64076;51.466;7.260;2024-01-15T02:10:47;24.13;;;19.50;;
75499;SDS011;64076;51.466;7.260;2024-01-15T02:13:13;25.75;;;19.55;;
75499;SDS011;64076;51.466;7.260;2024-01-15T02:15:38;24.60;;;19.83;;
75499;SDS011;64076;51.466;7.260;2024-01-15T02:18:05;25.15;;;19.48;;
75499;SDS011;64076;51.466;7.260;2024-01-15T02:20:33;25.20;;;19.60;;
75499;SDS011;64076;51.466;7.260;2024-01-15T02:23:07;23.17;;;19.48;;
75499;SDS011;64076;51.466;7.260;2024-01-15T02:25:42;24.77;;;19.30;;
75499;SDS011;64076;51.466;7.260;2024-01-15T02:28:12;25.17;;;19.95;;
75499;SDS011;64076;51.466;7.260;2024-01-15T02:30:40;23.77;;;19.02;;
75499;SDS011;64076;51.466;7.260;2024-01-15T02:33:06;24.13;;;19.65;;
75499;SDS011;64076;51.466;7.260;2024-01-15T02:35:33;24.08;;;18.92;;
75499;SDS011;64076;51.466;7.260;2024-01-15T02:38:01;26.10;;;20.33;;
75499;SDS011;64076;51.466;7.260;2024-01-15T02:40:27;23.10;;;18.95;;
75499;SDS011;64076;51.466;7.260;2024-01-15T02:42:53;24.55;;;19.25;;
75499;SDS011;64076;51.466;7.260;2024-01-15T02:45:19;23.33;;;18.23;;
75499;SDS011;64076;51.466;7.260;2024-01-15T02:47:44;25.08;;;19.52;;
75499;SDS011;64076;51.466;7.260;2024-01-15T02:50:10;24.53;;;19.43;;
75499;SDS011;64076;51.466;7.260;2024-01-15T02:52:36;23.20;;;18.50;;
75499;SDS011;64076;51.466;7.260;2024-01-15T02:55:01;25.92;;;19.75;;
75499;SDS011;64076;51.466;7.260;2024-01-15T02:57:27;24.43;;;19.23;;
75499;SDS011;64076;51.466;7.260;2024-01-15T02:59:52;24.47;;;19.63;;
75499;SDS011;64076;51.466;7.260;2024-01-15T03:02:18;25.35;;;20.02;;
75499;SDS011;64076;51.466;7.260;2024-01-15T03:04:43;25.03;;;19.17;;
75499;SDS011;64076;51.466;7.260;2024-01-15T03:07:09;23.40;;;18.58;;
75499;SDS011;64076;51.466;7.260;2024-01-15T03:09:35;22.77;;;18.47;;
75499;SDS011;64076;51.466;7.260;2024-01-15T03:12:00;24.30;;;18.73;;
75499;SDS011;64076;51.466;7.260;2024-01-15T03:14:26;24.85;;;18.95;;
75499;SDS011;64076;51.466;7.260;2024-01-15T03:16:52;25.17;;;18.83;;
75499;SDS011;64076;51.466;7.260;2024-01-15T03:19:18;23.95;;;18.70;;
75499;SDS011;64076;51.466;7.260;2024-01-15T03:21:43;23.33;;;18.85;;
75499;SDS011;64076;51.466;7.260;2024-01-15T03:24:09;24.53;;;18.43;;
75499;SDS011;64076;51.466;7.260;2024-01-15T03:26:34;24.17;;;18.10;;
75499;SDS011;64076;51.466;7.260;2024-01-15T03:29:00;27.58;;;21.65;;
75499;SDS011;64076;51.466;7.260;2024-01-15T03:31:25;24.80;;;19.23;;
75499;SDS011;64076;51.466;7.260;2024-01-15T03:33:51;22.60;;;18.00;;
75499;SDS011;64076;51.466;7.260;2024-01-15T03:36:16;24.08;;;18.13;;
75499;SDS011;64076;51.466;7.260;2024-01-15T03:38:42;25.53;;;19.67;;
75499;SDS011;64076;51.466;7.260;2024-01-15T03:41:07;22.47;;;17.63;;
75499;SDS011;64076;51.466;7.260;2024-01-15T03:43:33;20.95;;;17.55;;
75499;SDS011;64076;51.466;7.260;2024-01-15T03:45:59;23.23;;;18.33;;
75499;SDS011;64076;51.466;7.260;2024-01-15T03:48:24;23.07;;;17.50;;
75499;SDS011;64076;51.466;7.260;2024-01-15T03:50:50;21.93;;;17.73;;
75499;SDS011;64076;51.466;7.260;2024-01-15T03:53:15;22.73;;;18.33;;
75499;SDS011;64076;51.466;7.260;2024-01-15T03:55:41;21.57;;;18.10;;
75499;SDS011;64076;51.466;7.260;2024-01-15T03:58:07;21.77;;;17.80;;
75499;SDS011;64076;51.466;7.260;2024-01-15T04:00:33;23.05;;;18.27;;
75499;SDS011;64076;51.466;7.260;2024-01-15T04:02:59;23.43;;;18.33;;
75499;SDS011;64076;51.466;7.260;2024-01-15T04:05:25;22.65;;;17.98;;
75499;SDS011;64076;51.466;7.260;2024-01-15T04:07:51;23.27;;;18.30;;
75499;SDS011;64076;51.466;7.260;2024-01-15T04:10:16;24.47;;;17.40;;
75499;SDS011;64076;51.466;7.260;2024-01-15T04:12:42;24.20;;;17.98;;
75499;SDS011;64076;51.466;7.260;2024-01-15T04:15:07;22.40;;;18.20;;
75499;SDS011;64076;51.466;7.260;2024-01-15T04:17:33;21.67;;;16.87;;
75499;SDS011;64076;51.466;7.260;2024-01-15T04:19:59;22.77;;;18.40;;
75499;SDS011;64076;51.466;7.260;2024-01-15T04:22:25;21.00;;;17.27;;
75499;SDS011;64076;51.466;7.260;2024-01-15T04:24:50;21.45;;;16.80;;
75499;SDS011;64076;51.466;7.260;2024-01-15T04:27:16;22.13;;;17.50;;
75499;SDS011;64076;51.466;7.260;2024-01-15T04:29:41;21.45;;;17.35;;
75499;SDS011;64076;51.466;7.260;2024-01-15T04:32:09;23.47;;;18.67;;
75499;SDS011;64076;51.466;7.260;2024-01-15T04:34:35;20.52;;;16.83;;
75499;SDS011;64076;51.466;7.260;2024-01-15T04:37:00;21.47;;;16.97;;
75499;SDS011;64076;51.466;7.260;2024-01-15T04:39:26;21.65;;;17.25;;
75499;SDS011;64076;51.466;7.260;2024-01-15T04:41:51;22.67;;;17.77;;
75499;SDS011;64076;51.466;7.260;2024-01-15T04:44:18;21.30;;;16.93;;
75499;SDS011;64076;51.466;7.260;2024-01-15T04:46:44;20.38;;;16.45;;
75499;SDS011;64076;51.466;7.260;2024-01-15T04:49:09;20.65;;;16.15;;
75499;SDS011;64076;51.466;7.260;2024-01-15T04:51:36;21.17;;;17.33;;
75499;SDS011;64076;51.466;7.260;2024-01-15T04:54:01;20.05;;;16.38;;
75499;SDS011;64076;51.466;7.260;2024-01-15T04:56:27;20.10;;;16.70;;
75499;SDS011;64076;51.466;7.260;2024-01-15T04:58:52;20.53;;;16.10;;
75499;SDS011;64076;51.466;7.260;2024-01-15T05:01:18;22.50;;;17.55;;
75499;SDS011;64076;51.466;7.260;2024-01-15T05:03:43;21.57;;;17.03;;
75499;SDS011;64076;51.466;7.260;2024-01-15T05:06:09;19.77;;;15.80;;
75499;SDS011;64076;51.466;7.260;2024-01-15T05:08:34;20.23;;;16.65;;
75499;SDS011;64076;51.466;7.260;2024-01-15T05:11:00;19.67;;;16.60;;
75499;SDS011;64076;51.466;7.260;2024-01-15T05:13:26;20.05;;;17.00;;
75499;SDS011;64076;51.466;7.260;2024-01-15T05:15:51;19.87;;;16.27;;
75499;SDS011;64076;51.466;7.260;2024-01-15T05:18:17;20.38;;;16.40;;
75499;SDS011;64076;51.466;7.260;2024-01-15T05:20:42;20.50;;;16.07;;
75499;SDS011;64076;51.466;7.260;2024-01-15T05:23:08;20.70;;;16.37;;
75499;SDS011;64076;51.466;7.260;2024-01-15T05:25:34;20.38;;;16.25;;
75499;SDS011;64076;51.466;7.260;2024-01-15T05:27:59;20.87;;;16.77;;
75499;SDS011;64076;51.466;7.260;2024-01-15T05:30:25;19.63;;;15.93;;
75499;SDS011;64076;51.466;7.260;2024-01-15T05:32:50;18.63;;;15.73;;
75499;SDS011;64076;51.466;7.260;2024-01-15T05:35:16;19.47;;;15.63;;
75499;SDS011;64076;51.466;7.260;2024-01-15T05:37:43;20.75;;;16.25;;
75499;SDS011;64076;51.466;7.260;2024-01-15T05:40:10;19.13;;;15.67;;
75499;SDS011;64076;51.466;7.260;2024-01-15T05:42:36;18.25;;;15.10;;
75499;SDS011;64076;51.466;7.260;2024-01-15T05:45:02;20.10;;;16.03;;
75499;SDS011;64076;51.466;7.260;2024-01-15T05:47:29;19.27;;;15.57;;
75499;SDS011;64076;51.466;7.260;2024-01-15T05:49:55;19.50;;;15.70;;
75499;SDS011;64076;51.466;7.260;2024-01-15T05:52:21;18.83;;;15.30;;
75499;SDS011;64076;51.466;7.260;2024-01-15T05:54:47;20.30;;;16.07;;
75499;SDS011;64076;51.466;7.260;2024-01-15T05:57:13;21.23;;;16.57;;
75499;SDS011;64076;51.466;7.260;2024-01-15T05:59:38;20.83;;;16.05;;
75499;SDS011;64076;51.466;7.260;2024-01-15T06:02:04;20.37;;;16.00;;
75499;SDS011;64076;51.466;7.260;2024-01-15T06:04:29;21.20;;;15.73;;
75499;SDS011;64076;51.466;7.260;2024-01-15T06:06:55;19.90;;;15.40;;
75499;SDS011;64076;51.466;7.260;2024-01-15T06:09:20;19.20;;;15.33;;
75499;SDS011;64076;51.466;7.260;2024-01-15T06:11:46;18.53;;;15.60;;
75499;SDS011;64076;51.466;7.260;2024-01-15T06:14:11;19.13;;;15.75;;
75499;SDS011;64076;51.466;7.260;2024-01-15T06:16:37;18.67;;;15.33;;
75499;SDS011;64076;51.466;7.260;2024-01-15T06:19:02;20.67;;;15.77;;
75499;SDS011;64076;51.466;7.260;2024-01-15T06:21:28;18.65;;;14.55;;
75499;SDS011;64076;51.466;7.260;2024-01-15T06:23:53;14.37;;;11.67;;
75499;SDS011;64076;51.466;7.260;2024-01-15T06:26:21;14.73;;;12.07;;
75499;SDS011;64076;51.466;7.260;2024-01-15T06:28:49;13.95;;;11.18;;
75499;SDS011;64076;51.466;7.260;2024-01-15T06:31:15;13.77;;;10.37;;
75499;SDS011;64076;51.466;7.260;2024-01-15T06:33:41;11.52;;;9.57;;
75499;SDS011;64076;51.466;7.260;2024-01-15T06:36:07;11.33;;;9.43;;
75499;SDS011;64076;51.466;7.260;2024-01-15T06:38:33;12.00;;;9.82;;
75499;SDS011;64076;51.466;7.260;2024-01-15T06:40:59;11.30;;;9.03;;
75499;SDS011;64076;51.466;7.260;2024-01-15T06:43:24;10.23;;;8.75;;
75499;SDS011;64076;51.466;7.260;2024-01-15T06:45:50;9.80;;;8.23;;
75499;SDS011;64076;51.466;7.260;2024-01-15T06:48:16;10.48;;;8.38;;
75499;SDS011;64076;51.466;7.260;2024-01-15T06:50:44;9.63;;;8.10;;
75499;SDS011;64076;51.466;7.260;2024-01-15T06:53:10;9.13;;;7.63;;
75499;SDS011;64076;51.466;7.260;2024-01-15T06:55:36;9.43;;;7.83;;
75499;SDS011;64076;51.466;7.260;2024-01-15T06:58:02;9.07;;;7.60;;
75499;SDS011;64076;51.466;7.260;2024-01-15T07:00:28;8.20;;;6.97;;
75499;SDS011;64076;51.466;7.260;2024-01-15T07:02:54;7.97;;;7.00;;
75499;SDS011;64076;51.466;7.260;2024-01-15T07:05:20;7.45;;;6.68;;
75499;SDS011;64076;51.466;7.260;2024-01-15T07:07:46;7.65;;;6.55;;
75499;SDS011;64076;51.466;7.260;2024-01-15T07:10:12;8.30;;;7.03;;
75499;SDS011;64076;51.466;7.260;2024-01-15T07:12:38;7.32;;;6.53;;
75499;SDS011;64076;51.466;7.260;2024-01-15T07:15:04;7.75;;;7.03;;
75499;SDS011;64076;51.466;7.260;2024-01-15T07:17:32;7.27;;;6.03;;
75499;SDS011;64076;51.466;7.260;2024-01-15T07:19:57;6.28;;;5.68;;
75499;SDS011;64076;51.466;7.260;2024-01-15T07:22:23;7.23;;;5.80;;
75499;SDS011;64076;51.466;7.260;2024-01-15T07:24:48;6.63;;;5.90;;
75499;SDS011;64076;51.466;7.260;2024-01-15T07:27:14;6.18;;;5.38;;
75499;SDS011;64076;51.466;7.260;2024-01-15T07:29:39;6.03;;;5.37;;
75499;SDS011;64076;51.466;7.260;2024-01-15T07:32:05;6.37;;;5.33;;
75499;SDS011;64076;51.466;7.260;2024-01-15T07:34:32;5.47;;;4.90;;
75499;SDS011;64076;51.466;7.260;2024-01-15T07:36:58;5.57;;;4.90;;
75499;SDS011;64076;51.466;7.260;2024-01-15T07:39:23;5.20;;;4.70;;
75499;SDS011;64076;51.466;7.260;2024-01-15T07:41:50;6.25;;;5.25;;
75499;SDS011;64076;51.466;7.260;2024-01-15T07:44:16;5.43;;;4.90;;
75499;SDS011;64076;51.466;7.260;2024-01-15T07:46:48;5.63;;;4.47;;
75499;SDS011;64076;51.466;7.260;2024-01-15T07:49:14;5.32;;;4.43;;
75499;SDS011;64076;51.466;7.260;2024-01-15T07:51:39;5.32;;;4.30;;
75499;SDS011;64076;51.466;7.260;2024-01-15T07:54:06;5.00;;;4.30;;
75499;SDS011;64076;51.466;7.260;2024-01-15T07:56:32;4.82;;;4.13;;
75499;SDS011;64076;51.466;7.260;2024-01-15T07:58:58;4.60;;;3.90;;
75499;SDS011;64076;51.466;7.260;2024-01-15T08:01:24;4.80;;;3.97;;
75499;SDS011;64076;51.466;7.260;2024-01-15T08:03:49;5.37;;;4.33;;
75499;SDS011;64076;51.466;7.260;2024-01-15T08:06:15;4.50;;;3.80;;
75499;SDS011;64076;51.466;7.260;2024-01-15T08:08:41;4.47;;;3.60;;
75499;SDS011;64076;51.466;7.260;2024-01-15T08:11:06;4.30;;;3.70;;
75499;SDS011;64076;51.466;7.260;2024-01-15T08:13:32;4.13;;;3.67;;
75499;SDS011;64076;51.466;7.260;2024-01-15T08:15:58;4.00;;;3.27;;
75499;SDS011;64076;51.466;7.260;2024-01-15T08:18:23;3.70;;;2.95;;
75499;SDS011;64076;51.466;7.260;2024-01-15T08:20:50;3.95;;;3.35;;
75499;SDS011;64076;51.466;7.260;2024-01-15T08:23:17;3.80;;;3.10;;
75499;SDS011;64076;51.466;7.260;2024-01-15T08:25:43;3.60;;;2.90;;
75499;SDS011;64076;51.466;7.260;2024-01-15T08:28:08;3.75;;;3.15;;
75499;SDS011;64076;51.466;7.260;2024-01-15T08:30:34;3.80;;;3.30;;
75499;SDS011;64076;51.466;7.260;2024-01-15T08:32:59;3.93;;;3.43;;
75499;SDS011;64076;51.466;7.260;2024-01-15T08:35:25;3.75;;;3.15;;
75499;SDS011;64076;51.466;7.260;2024-01-15T08:37:51;3.27;;;2.70;;
75499;SDS011;64076;51.466;7.260;2024-01-15T08:40:17;3.60;;;3.10;;
75499;SDS011;64076;51.466;7.260;2024-01-15T08:42:43;3.70;;;3.10;;
75499;SDS011;64076;51.466;7.260;2024-01-15T08:45:10;3.85;;;3.20;;
75499;SDS011;64076;51.466;7.260;2024-01-15T08:47:36;4.77;;;4.37;;
75499;SDS011;64076;51.466;7.260;2024-01-15T08:50:02;3.50;;;3.20;;
75499;SDS011;64076;51.466;7.260;2024-01-15T08:52:28;4.07;;;3.67;;
75499;SDS011;64076;51.466;7.260;2024-01-15T08:54:55;4.45;;;4.05;;
75499;SDS011;64076;51.466;7.260;2024-01-15T08:57:21;4.20;;;3.72;;
75499;SDS011;64076;51.466;7.260;2024-01-15T08:59:47;4.27;;;3.83;;
75499;SDS011;64076;51.466;7.260;2024-01-15T09:02:12;4.00;;;3.60;;
75499;SDS011;64076;51.466;7.260;2024-01-15T09:04:38;4.33;;;3.60;;
75499;SDS011;64076;51.466;7.260;2024-01-15T09:07:04;4.22;;;3.83;;
75499;SDS011;64076;51.466;7.260;2024-01-15T09:09:30;4.30;;;3.90;;
75499;SDS011;64076;51.466;7.260;2024-01-15T09:11:55;4.00;;;3.60;;
75499;SDS011;64076;51.466;7.260;2024-01-15T09:14:21;4.00;;;3.60;;
75499;SDS011;64076;51.466;7.260;2024-01-15T09:16:47;4.20;;;3.80;;
75499;SDS011;64076;51.466;7.260;2024-01-15T09:19:13;4.00;;;3.60;;
75499;SDS011;64076;51.466;7.260;2024-01-15T09:21:38;3.50;;;3.20;;
75499;SDS011;64076;51.466;7.260;2024-01-15T09:24:05;4.03;;;3.63;;
75499;SDS011;64076;51.466;7.260;2024-01-15T09:26:30;4.27;;;3.70;;
75499;SDS011;64076;51.466;7.260;2024-01-15T09:28:56;4.27;;;3.73;;
75499;SDS011;64076;51.466;7.260;2024-01-15T09:31:22;4.40;;;4.00;;
75499;SDS011;64076;51.466;7.260;2024-01-15T09:33:48;3.80;;;3.42;;
75499;SDS011;64076;51.466;7.260;2024-01-15T09:36:16;4.30;;;3.90;;
75499;SDS011;64076;51.466;7.260;2024-01-15T09:38:42;4.20;;;3.80;;
75499;SDS011;64076;51.466;7.260;2024-01-15T09:41:07;3.97;;;3.57;;
75499;SDS011;64076;51.466;7.260;2024-01-15T09:43:33;4.35;;;3.95;;
75499;SDS011;64076;51.466;7.260;2024-01-15T09:45:59;4.20;;;3.80;;
75499;SDS011;64076;51.466;7.260;2024-01-15T09:48:24;3.55;;;3.25;;
75499;SDS011;64076;51.466;7.260;2024-01-15T09:50:50;4.20;;;3.80;;
75499;SDS011;64076;51.466;7.260;2024-01-15T09:53:17;4.03;;;3.50;;
75499;SDS011;64076;51.466;7.260;2024-01-15T09:55:43;3.70;;;3.40;;
75499;SDS011;64076;51.466;7.260;2024-01-15T09:58:09;3.63;;;3.30;;
75499;SDS011;64076;51.466;7.260;2024-01-15T10:00:35;3.40;;;2.97;;
75499;SDS011;64076;51.466;7.260;2024-01-15T10:03:04;3.40;;;3.05;;
75499;SDS011;64076;51.466;7.260;2024-01-15T10:05:31;3.47;;;3.17;;
75499;SDS011;64076;51.466;7.260;2024-01-15T10:07:57;3.83;;;3.20;;
75499;SDS011;64076;51.466;7.260;2024-01-15T10:10:24;3.00;;;2.70;;
75499;SDS011;64076;51.466;7.260;2024-01-15T10:12:50;4.80;;;3.40;;
75499;SDS011;64076;51.466;7.260;2024-01-15T10:15:15;3.85;;;3.30;;
75499;SDS011;64076;51.466;7.260;2024-01-15T10:17:42;3.33;;;2.95;;
75499;SDS011;64076;51.466;7.260;2024-01-15T10:20:11;3.57;;;3.27;;
75499;SDS011;64076;51.466;7.260;2024-01-15T10:22:46;3.63;;;3.20;;
75499;SDS011;64076;51.466;7.260;2024-01-15T10:25:12;3.38;;;3.05;;
75499;SDS011;64076;51.466;7.260;2024-01-15T10:27:39;3.80;;;3.38;;
75499;SDS011;64076;51.466;7.260;2024-01-15T10:30:06;3.57;;;3.10;;
75499;SDS011;64076;51.466;7.260;2024-01-15T10:32:33;3.67;;;3.38;;
75499;SDS011;64076;51.466;7.260;2024-01-15T10:34:58;3.47;;;3.17;;
75499;SDS011;64076;51.466;7.260;2024-01-15T10:37:24;3.38;;;3.00;;
75499;SDS011;64076;51.466;7.260;2024-01-15T10:39:50;3.45;;;2.92;;
75499;SDS011;64076;51.466;7.260;2024-01-15T10:42:16;3.30;;;2.90;;
75499;SDS011;64076;51.466;7.260;2024-01-15T10:44:43;3.40;;;2.88;;
75499;SDS011;64076;51.466;7.260;2024-01-15T10:47:09;3.35;;;3.05;;
75499;SDS011;64076;51.466;7.260;2024-01-15T10:49:36;3.20;;;2.90;;
75499;SDS011;64076;51.466;7.260;2024-01-15T10:52:02;3.30;;;2.90;;
75499;SDS011;64076;51.466;7.260;2024-01-15T10:54:28;3.67;;;3.05;;
75499;SDS011;64076;51.466;7.260;2024-01-15T10:56:55;3.10;;;2.80;;
75499;SDS011;64076;51.466;7.260;2024-01-15T10:59:21;3.55;;;2.70;;
75499;SDS011;64076;51.466;7.260;2024-01-15T11:01:50;3.20;;;2.70;;
75499;SDS011;64076;51.466;7.260;2024-01-15T11:04:18;2.90;;;2.50;;
75499;SDS011;64076;51.466;7.260;2024-01-15T11:06:45;3.45;;;2.60;;
75499;SDS011;64076;51.466;7.260;2024-01-15T11:09:14;2.95;;;2.58;;
75499;SDS011;64076;51.466;7.260;2024-01-15T11:11:44;2.90;;;2.47;;
75499;SDS011;64076;51.466;7.260;2024-01-15T11:14:24;2.73;;;2.20;;
75499;SDS011;64076;51.466;7.260;2024-01-15T11:17:26;2.88;;;2.20;;
75499;SDS011;64076;51.466;7.260;2024-01-15T11:19:52;3.03;;;2.42;;
75499;SDS011;64076;51.466;7.260;2024-01-15T11:24:55;3.20;;;2.78;;
75499;SDS011;64076;51.466;7.260;2024-01-15T11:30:11;2.88;;;2.33;;
75499;SDS011;64076;51.466;7.260;2024-01-15T11:32:37;2.80;;;2.40;;
75499;SDS011;64076;51.466;7.260;2024-01-15T11:35:06;2.70;;;2.30;;
75499;SDS011;64076;51.466;7.260;2024-01-15T11:40:21;3.10;;;2.42;;
75499;SDS011;64076;51.466;7.260;2024-01-15T11:42:57;2.55;;;1.98;;
75499;SDS011;64076;51.466;7.260;2024-01-15T11:45:23;3.17;;;2.40;;
75499;SDS011;64076;51.466;7.260;2024-01-15T11:47:57;2.72;;;2.33;;
75499;SDS011;64076;51.466;7.260;2024-01-15T11:50:39;2.83;;;2.58;;
75499;SDS011;64076;51.466;7.260;2024-01-15T11:53:10;2.60;;;2.20;;
75499;SDS011;64076;51.466;7.260;2024-01-15T11:55:59;3.10;;;2.30;;
75499;SDS011;64076;51.466;7.260;2024-01-15T11:58:27;2.45;;;2.10;;
75499;SDS011;64076;51.466;7.260;2024-01-15T12:00:53;2.95;;;2.22;;
75499;SDS011;64076;51.466;7.260;2024-01-15T12:03:23;2.50;;;2.08;;
75499;SDS011;64076;51.466;7.260;2024-01-15T12:05:49;2.70;;;2.07;;
75499;SDS011;64076;51.466;7.260;2024-01-15T12:08:20;2.55;;;2.13;;
75499;SDS011;64076;51.466;7.260;2024-01-15T12:10:49;2.67;;;2.03;;
75499;SDS011;64076;51.466;7.260;2024-01-15T12:13:14;2.93;;;2.30;;
75499;SDS011;64076;51.466;7.260;2024-01-15T12:15:42;2.88;;;2.30;;
75499;SDS011;64076;51.466;7.260;2024-01-15T12:18:09;2.55;;;2.17;;
75499;SDS011;64076;51.466;7.260;2024-01-15T12:20:36;2.85;;;1.83;;
75499;SDS011;64076;51.466;7.260;2024-01-15T12:23:02;2.80;;;1.97;;
75499;SDS011;64076;51.466;7.260;2024-01-15T12:25:35;2.67;;;1.90;;
75499;SDS011;64076;51.466;7.260;2024-01-15T12:28:01;2.70;;;2.00;;
75499;SDS011;64076;51.466;7.260;2024-01-15T12:30:27;2.30;;;1.80;;
75499;SDS011;64076;51.466;7.260;2024-01-15T12:32:53;2.95;;;1.90;;
75499;SDS011;64076;51.466;7.260;2024-01-15T12:35:19;3.03;;;1.90;;
75499;SDS011;64076;51.466;7.260;2024-01-15T12:37:45;2.25;;;1.90;;
75499;SDS011;64076;51.466;7.260;2024-01-15T12:40:11;4.50;;;1.83;;
75499;SDS011;64076;51.466;7.260;2024-01-15T12:42:39;4.53;;;1.70;;
75499;SDS011;64076;51.466;7.260;2024-01-15T12:45:05;2.03;;;1.55;;
75499;SDS011;64076;51.466;7.260;2024-01-15T12:47:31;6.90;;;1.80;;
75499;SDS011;64076;51.466;7.260;2024-01-15T12:49:57;2.50;;;2.03;;
75499;SDS011;64076;51.466;7.260;2024-01-15T12:52:26;5.20;;;1.80;;
75499;SDS011;64076;51.466;7.260;2024-01-15T12:54:52;2.90;;;1.65;;
75499;SDS011;64076;51.466;7.260;2024-01-15T12:57:17;3.77;;;1.80;;
75499;SDS011;64076;51.466;7.260;2024-01-15T12:59:44;2.65;;;1.60;;
75499;SDS011;64076;51.466;7.260;2024-01-15T13:02:10;2.10;;;1.60;;
75499;SDS011;64076;51.466;7.260;2024-01-15T13:04:36;3.25;;;1.60;;
75499;SDS011;64076;51.466;7.260;2024-01-15T13:07:02;2.77;;;1.80;;
75499;SDS011;64076;51.466;7.260;2024-01-15T13:09:28;2.10;;;1.65;;
75499;SDS011;64076;51.466;7.260;2024-01-15T13:11:54;2.40;;;1.70;;
75499;SDS011;64076;51.466;7.260;2024-01-15T13:14:20;2.78;;;1.92;;
75499;SDS011;64076;51.466;7.260;2024-01-15T13:16:46;3.60;;;1.90;;
75499;SDS011;64076;51.466;7.260;2024-01-15T13:19:12;2.65;;;1.73;;
75499;SDS011;64076;51.466;7.260;2024-01-15T13:21:38;2.77;;;1.77;;
75499;SDS011;64076;51.466;7.260;2024-01-15T13:24:10;2.00;;;1.52;;
75499;SDS011;64076;51.466;7.260;2024-01-15T13:26:37;1.90;;;1.63;;
75499;SDS011;64076;51.466;7.260;2024-01-15T13:29:03;2.50;;;1.60;;
75499;SDS011;64076;51.466;7.260;2024-01-15T13:31:29;2.20;;;1.67;;
75499;SDS011;64076;51.466;7.260;2024-01-15T13:33:55;2.53;;;1.88;;
75499;SDS011;64076;51.466;7.260;2024-01-15T13:36:21;2.57;;;1.83;;
75499;SDS011;64076;51.466;7.260;2024-01-15T13:38:48;2.22;;;2.03;;
75499;SDS011;64076;51.466;7.260;2024-01-15T13:41:15;2.03;;;1.80;;
75499;SDS011;64076;51.466;7.260;2024-01-15T13:43:43;2.65;;;2.00;;
75499;SDS011;64076;51.466;7.260;2024-01-15T13:46:09;2.23;;;1.60;;
75499;SDS011;64076;51.466;7.260;2024-01-15T13:48:34;2.28;;;1.73;;
75499;SDS011;64076;51.466;7.260;2024-01-15T13:51:00;2.73;;;1.93;;
75499;SDS011;64076;51.466;7.260;2024-01-15T13:53:26;2.27;;;1.90;;
75499;SDS011;64076;51.466;7.260;2024-01-15T13:55:51;2.17;;;1.75;;
75499;SDS011;64076;51.466;7.260;2024-01-15T13:58:17;2.00;;;1.60;;
75499;SDS011;64076;51.466;7.260;2024-01-15T14:00:43;2.50;;;1.90;;
75499;SDS011;64076;51.466;7.260;2024-01-15T14:03:09;1.90;;;1.60;;
75499;SDS011;64076;51.466;7.260;2024-01-15T14:05:34;2.40;;;2.03;;
75499;SDS011;64076;51.466;7.260;2024-01-15T14:08:00;2.03;;;1.80;;
75499;SDS011;64076;51.466;7.260;2024-01-15T14:10:25;2.10;;;1.80;;
75499;SDS011;64076;51.466;7.260;2024-01-15T14:12:51;2.40;;;2.00;;
75499;SDS011;64076;51.466;7.260;2024-01-15T14:15:16;2.40;;;1.73;;
75499;SDS011;64076;51.466;7.260;2024-01-15T14:17:42;2.40;;;2.20;;
75499;SDS011;64076;51.466;7.260;2024-01-15T14:20:08;2.53;;;2.03;;
75499;SDS011;64076;51.466;7.260;2024-01-15T14:22:34;2.20;;;1.80;;
75499;SDS011;64076;51.466;7.260;2024-01-15T14:25:04;2.27;;;2.00;;
75499;SDS011;64076;51.466;7.260;2024-01-15T14:27:30;2.97;;;1.90;;
75499;SDS011;64076;51.466;7.260;2024-01-15T14:29:55;2.30;;;2.00;;
75499;SDS011;64076;51.466;7.260;2024-01-15T14:32:21;2.40;;;2.17;;
75499;SDS011;64076;51.466;7.260;2024-01-15T14:34:46;2.50;;;2.30;;
75499;SDS011;64076;51.466;7.260;2024-01-15T14:37:13;2.20;;;2.00;;
75499;SDS011;64076;51.466;7.260;2024-01-15T14:39:38;2.73;;;2.20;;